ITY2059 LIML-LIRF
Flight info
| Callsign | ITY2059 |
|---|---|
| Flight time | 0h 47m |
| Altitude | 33000 |
| Route | EKPAL6A EKPAL DCT TINKU DCT XIBIL XIBIL3A |
| Aircraft | A320/M-SDE3FGHIRWY/LB1 |
Departure
| Time | 2026-05-05 20:52 |
|---|---|
| Airport | Milano Linate Airport (LIML) |
Arrival
| Time | 2026-05-05 21:39 |
|---|---|
| Airport | Rome–Fiumicino Leonardo da Vinci International Airport (LIRF) |
| Time | Latitude | Longitude | Altitude | Speed | Heading |
|---|---|---|---|---|---|
| 2026-05-05 19:48 | 45.45974 | 9.27967 | 360 ft | 0 kts | 0° |
| 2026-05-05 20:29 | 45.45951 | 9.27967 | 360 ft | 4 kts | 0° |
| 2026-05-05 20:29 | 45.45929 | 9.27967 | 366 ft | 4 kts | 9° |
| 2026-05-05 20:30 | 45.45910 | 9.27951 | 360 ft | 4 kts | 70° |
| 2026-05-05 20:30 | 45.45907 | 9.27917 | 362 ft | 4 kts | 90° |
| 2026-05-05 20:30 | 45.45907 | 9.27905 | 363 ft | 1 kts | 90° |
| 2026-05-05 20:36 | 45.45907 | 9.27912 | 362 ft | 4 kts | 90° |
| 2026-05-05 20:36 | 45.45904 | 9.27958 | 360 ft | 3 kts | 105° |
| 2026-05-05 20:36 | 45.45899 | 9.27971 | 361 ft | 3 kts | 124° |
| 2026-05-05 20:36 | 45.45849 | 9.27975 | 366 ft | 13 kts | 181° |
| 2026-05-05 20:37 | 45.45751 | 9.27979 | 366 ft | 13 kts | 176° |
| 2026-05-05 20:37 | 45.45674 | 9.27986 | 363 ft | 9 kts | 177° |
| 2026-05-05 20:37 | 45.45618 | 9.27985 | 360 ft | 11 kts | 181° |
| 2026-05-05 20:37 | 45.45510 | 9.27981 | 362 ft | 15 kts | 181° |
| 2026-05-05 20:38 | 45.45415 | 9.27978 | 360 ft | 12 kts | 181° |
| 2026-05-05 20:38 | 45.45353 | 9.27958 | 360 ft | 9 kts | 208° |
| 2026-05-05 20:38 | 45.45293 | 9.27907 | 361 ft | 10 kts | 209° |
| 2026-05-05 20:38 | 45.45228 | 9.27867 | 360 ft | 10 kts | 194° |
| 2026-05-05 20:39 | 45.45165 | 9.27875 | 361 ft | 9 kts | 170° |
| 2026-05-05 20:39 | 45.45104 | 9.27888 | 361 ft | 9 kts | 174° |
| 2026-05-05 20:39 | 45.45047 | 9.27893 | 360 ft | 8 kts | 179° |
| 2026-05-05 20:39 | 45.44993 | 9.27892 | 360 ft | 7 kts | 181° |
| 2026-05-05 20:40 | 45.44944 | 9.27892 | 364 ft | 7 kts | 178° |
| 2026-05-05 20:40 | 45.44873 | 9.27913 | 362 ft | 13 kts | 166° |
| 2026-05-05 20:40 | 45.44796 | 9.27940 | 360 ft | 10 kts | 167° |
| 2026-05-05 20:40 | 45.44738 | 9.27953 | 360 ft | 6 kts | 173° |
| 2026-05-05 20:41 | 45.44688 | 9.27959 | 360 ft | 12 kts | 175° |
| 2026-05-05 20:41 | 45.44578 | 9.27973 | 366 ft | 19 kts | 175° |
| 2026-05-05 20:41 | 45.44450 | 9.27990 | 360 ft | 17 kts | 174° |
| 2026-05-05 20:41 | 45.44340 | 9.27999 | 360 ft | 14 kts | 180° |
| 2026-05-05 20:42 | 45.44257 | 9.28001 | 362 ft | 9 kts | 176° |
| 2026-05-05 20:42 | 45.44179 | 9.28009 | 364 ft | 17 kts | 175° |
| 2026-05-05 20:42 | 45.44027 | 9.28026 | 362 ft | 26 kts | 175° |
| 2026-05-05 20:42 | 45.43850 | 9.28047 | 360 ft | 25 kts | 176° |
| 2026-05-05 20:43 | 45.43673 | 9.28066 | 362 ft | 26 kts | 175° |
| 2026-05-05 20:43 | 45.43558 | 9.28080 | 361 ft | 0 kts | 175° |
| 2026-05-05 20:43 | 45.43533 | 9.28083 | 361 ft | 7 kts | 175° |
| 2026-05-05 20:43 | 45.43495 | 9.28085 | 362 ft | 9 kts | 182° |
| 2026-05-05 20:44 | 45.43447 | 9.28022 | 361 ft | 8 kts | 257° |
| 2026-05-05 20:44 | 45.43445 | 9.27993 | 362 ft | 0 kts | 264° |
| 2026-05-05 20:48 | 45.43443 | 9.27974 | 361 ft | 8 kts | 264° |
| 2026-05-05 20:48 | 45.43439 | 9.27889 | 365 ft | 6 kts | 269° |
| 2026-05-05 20:49 | 45.43475 | 9.27820 | 362 ft | 13 kts | 347° |
| 2026-05-05 20:49 | 45.43503 | 9.27815 | 362 ft | 0 kts | 355° |
| 2026-05-05 20:51 | 45.43709 | 9.27797 | 362 ft | 69 kts | 357° |
| 2026-05-05 20:52 | 45.44422 | 9.27722 | 361 ft | 132 kts | 355° |
| 2026-05-05 20:52 | 45.45499 | 9.27610 | 545 ft | 164 kts | 357° |
| 2026-05-05 20:52 | 45.46639 | 9.27557 | 1248 ft | 163 kts | 17° |
| 2026-05-05 20:52 | 45.47561 | 9.28404 | 1845 ft | 164 kts | 60° |
| 2026-05-05 20:53 | 45.47892 | 9.30005 | 2232 ft | 181 kts | 96° |
| 2026-05-05 20:53 | 45.47404 | 9.31721 | 2618 ft | 201 kts | 130° |
| 2026-05-05 20:53 | 45.46456 | 9.33219 | 3345 ft | 204 kts | 132° |
| 2026-05-05 20:53 | 45.45467 | 9.34791 | 3801 ft | 225 kts | 135° |
| 2026-05-05 20:54 | 45.44165 | 9.36209 | 4179 ft | 248 kts | 148° |
| 2026-05-05 20:54 | 45.42636 | 9.37508 | 4816 ft | 260 kts | 152° |
| 2026-05-05 20:54 | 45.41039 | 9.38777 | 5713 ft | 264 kts | 153° |
| 2026-05-05 20:54 | 45.39423 | 9.40056 | 6564 ft | 268 kts | 153° |
| 2026-05-05 20:55 | 45.37811 | 9.41350 | 7345 ft | 271 kts | 153° |
| 2026-05-05 20:55 | 45.36163 | 9.42691 | 8137 ft | 275 kts | 153° |
| 2026-05-05 20:55 | 45.34492 | 9.44065 | 8935 ft | 279 kts | 152° |
| 2026-05-05 20:55 | 45.32814 | 9.45457 | 9738 ft | 282 kts | 152° |
| 2026-05-05 20:56 | 45.31099 | 9.46886 | 10429 ft | 289 kts | 152° |
| 2026-05-05 20:56 | 45.29287 | 9.48390 | 10646 ft | 313 kts | 152° |
| 2026-05-05 20:56 | 45.27338 | 9.50003 | 10810 ft | 336 kts | 152° |
| 2026-05-05 20:56 | 45.25258 | 9.51728 | 11068 ft | 354 kts | 152° |
| 2026-05-05 20:57 | 45.23124 | 9.53557 | 11638 ft | 362 kts | 147° |
| 2026-05-05 20:57 | 45.21102 | 9.55722 | 12264 ft | 366 kts | 150° |
| 2026-05-05 20:57 | 45.18781 | 9.57122 | 12888 ft | 365 kts | 166° |
| 2026-05-05 20:57 | 45.16321 | 9.58063 | 13564 ft | 368 kts | 169° |
| 2026-05-05 20:58 | 45.13842 | 9.58992 | 14185 ft | 371 kts | 168° |
| 2026-05-05 20:58 | 45.11353 | 9.60014 | 14799 ft | 374 kts | 166° |
| 2026-05-05 20:58 | 45.08863 | 9.61155 | 15429 ft | 377 kts | 165° |
| 2026-05-05 20:58 | 45.06411 | 9.62500 | 16034 ft | 381 kts | 161° |
| 2026-05-05 20:59 | 45.03989 | 9.64049 | 16654 ft | 384 kts | 159° |
| 2026-05-05 20:59 | 45.01585 | 9.65703 | 17276 ft | 387 kts | 159° |
| 2026-05-05 20:59 | 44.99165 | 9.67401 | 17890 ft | 389 kts | 159° |
| 2026-05-05 20:59 | 44.96737 | 9.69087 | 18454 ft | 391 kts | 159° |
| 2026-05-05 21:00 | 44.94275 | 9.70754 | 18844 ft | 392 kts | 160° |
| 2026-05-05 21:00 | 44.91803 | 9.72389 | 18960 ft | 391 kts | 160° |
| 2026-05-05 21:00 | 44.89336 | 9.73996 | 18983 ft | 390 kts | 161° |
| 2026-05-05 21:00 | 44.86861 | 9.75594 | 18986 ft | 390 kts | 161° |
| 2026-05-05 21:01 | 44.84412 | 9.77171 | 18985 ft | 390 kts | 161° |
| 2026-05-05 21:01 | 44.81943 | 9.78761 | 18982 ft | 391 kts | 161° |
| 2026-05-05 21:01 | 44.79475 | 9.80355 | 19039 ft | 393 kts | 161° |
| 2026-05-05 21:01 | 44.76990 | 9.81992 | 19566 ft | 394 kts | 160° |
| 2026-05-05 21:02 | 44.74525 | 9.83714 | 20081 ft | 396 kts | 159° |
| 2026-05-05 21:02 | 44.72070 | 9.85502 | 20557 ft | 399 kts | 158° |
| 2026-05-05 21:02 | 44.69605 | 9.87331 | 21040 ft | 402 kts | 158° |
| 2026-05-05 21:02 | 44.67127 | 9.89175 | 21449 ft | 405 kts | 158° |
| 2026-05-05 21:03 | 44.64625 | 9.91023 | 21891 ft | 406 kts | 158° |
| 2026-05-05 21:03 | 44.62113 | 9.92863 | 22316 ft | 409 kts | 158° |
| 2026-05-05 21:03 | 44.59573 | 9.94712 | 22733 ft | 412 kts | 158° |
| 2026-05-05 21:03 | 44.57020 | 9.96561 | 23145 ft | 414 kts | 158° |
| 2026-05-05 21:04 | 44.54455 | 9.98410 | 23508 ft | 417 kts | 158° |
| 2026-05-05 21:04 | 44.51892 | 10.00253 | 23819 ft | 420 kts | 158° |
| 2026-05-05 21:04 | 44.49243 | 10.02160 | 24144 ft | 422 kts | 158° |
| 2026-05-05 21:04 | 44.46670 | 10.04016 | 24455 ft | 424 kts | 158° |
| 2026-05-05 21:05 | 44.44028 | 10.05923 | 24774 ft | 427 kts | 158° |
| 2026-05-05 21:05 | 44.41385 | 10.07828 | 25075 ft | 428 kts | 159° |
| 2026-05-05 21:05 | 44.38733 | 10.09734 | 25332 ft | 431 kts | 159° |
| 2026-05-05 21:05 | 44.36040 | 10.11667 | 25625 ft | 433 kts | 159° |
| 2026-05-05 21:06 | 44.33357 | 10.13593 | 25895 ft | 435 kts | 159° |
| 2026-05-05 21:06 | 44.30650 | 10.15535 | 26201 ft | 437 kts | 159° |
| 2026-05-05 21:06 | 44.27944 | 10.17478 | 26474 ft | 438 kts | 159° |
| 2026-05-05 21:06 | 44.25219 | 10.19430 | 26759 ft | 440 kts | 159° |
| 2026-05-05 21:07 | 44.22489 | 10.21378 | 27004 ft | 443 kts | 159° |
| 2026-05-05 21:07 | 44.19769 | 10.23316 | 27258 ft | 445 kts | 159° |
| 2026-05-05 21:07 | 44.17008 | 10.25281 | 27502 ft | 447 kts | 159° |
| 2026-05-05 21:07 | 44.14235 | 10.27254 | 27730 ft | 449 kts | 159° |
| 2026-05-05 21:08 | 44.11445 | 10.29240 | 27947 ft | 451 kts | 159° |
| 2026-05-05 21:08 | 44.08617 | 10.31253 | 28206 ft | 452 kts | 159° |
| 2026-05-05 21:08 | 44.05842 | 10.33225 | 28510 ft | 452 kts | 159° |
| 2026-05-05 21:08 | 44.03043 | 10.35210 | 28854 ft | 451 kts | 160° |
| 2026-05-05 21:09 | 44.00244 | 10.37196 | 29181 ft | 451 kts | 160° |
| 2026-05-05 21:09 | 43.97465 | 10.39169 | 29519 ft | 450 kts | 160° |
| 2026-05-05 21:09 | 43.94668 | 10.41148 | 29783 ft | 450 kts | 160° |
| 2026-05-05 21:09 | 43.91886 | 10.43116 | 30131 ft | 448 kts | 160° |
| 2026-05-05 21:10 | 43.89122 | 10.45066 | 30435 ft | 446 kts | 160° |
| 2026-05-05 21:10 | 43.86357 | 10.47012 | 30709 ft | 445 kts | 160° |
| 2026-05-05 21:10 | 43.83585 | 10.48958 | 30991 ft | 444 kts | 161° |
| 2026-05-05 21:10 | 43.80837 | 10.50887 | 31264 ft | 444 kts | 161° |
| 2026-05-05 21:11 | 43.78087 | 10.52818 | 31546 ft | 443 kts | 161° |
| 2026-05-05 21:11 | 43.75301 | 10.54539 | 31839 ft | 434 kts | 169° |
| 2026-05-05 21:11 | 43.72440 | 10.55876 | 32128 ft | 432 kts | 169° |
| 2026-05-05 21:11 | 43.69593 | 10.57198 | 32459 ft | 431 kts | 169° |
| 2026-05-05 21:12 | 43.66742 | 10.58519 | 32613 ft | 433 kts | 169° |
| 2026-05-05 21:12 | 43.63878 | 10.59847 | 32787 ft | 435 kts | 169° |
| 2026-05-05 21:12 | 43.61003 | 10.61184 | 33034 ft | 435 kts | 169° |
| 2026-05-05 21:12 | 43.58162 | 10.62505 | 33301 ft | 435 kts | 169° |
| 2026-05-05 21:13 | 43.55298 | 10.63837 | 33591 ft | 434 kts | 169° |
| 2026-05-05 21:13 | 43.52442 | 10.65165 | 33876 ft | 434 kts | 170° |
| 2026-05-05 21:13 | 43.49576 | 10.66492 | 34144 ft | 433 kts | 170° |
| 2026-05-05 21:13 | 43.46729 | 10.67802 | 34370 ft | 432 kts | 170° |
| 2026-05-05 21:14 | 43.43868 | 10.69118 | 34581 ft | 433 kts | 170° |
| 2026-05-05 21:14 | 43.41012 | 10.70430 | 34778 ft | 433 kts | 170° |
| 2026-05-05 21:14 | 43.38159 | 10.71740 | 34944 ft | 434 kts | 169° |
| 2026-05-05 21:14 | 43.35293 | 10.73055 | 35002 ft | 437 kts | 169° |
| 2026-05-05 21:15 | 43.29510 | 10.75715 | 34998 ft | 438 kts | 169° |
| 2026-05-05 21:15 | 43.26621 | 10.77042 | 34753 ft | 438 kts | 169° |
| 2026-05-05 21:15 | 43.23725 | 10.78376 | 34513 ft | 437 kts | 169° |
| 2026-05-05 21:16 | 43.20863 | 10.79689 | 34273 ft | 437 kts | 170° |
| 2026-05-05 21:16 | 43.17969 | 10.81014 | 34032 ft | 436 kts | 170° |
| 2026-05-05 21:16 | 43.15084 | 10.82332 | 33763 ft | 437 kts | 170° |
| 2026-05-05 21:16 | 43.12201 | 10.83647 | 33488 ft | 438 kts | 169° |
| 2026-05-05 21:17 | 43.09308 | 10.84968 | 33197 ft | 439 kts | 169° |
| 2026-05-05 21:17 | 43.06403 | 10.86290 | 32931 ft | 441 kts | 169° |
| 2026-05-05 21:17 | 43.03483 | 10.87618 | 32680 ft | 442 kts | 169° |
| 2026-05-05 21:17 | 43.00568 | 10.88942 | 32411 ft | 443 kts | 169° |
| 2026-05-05 21:18 | 42.97636 | 10.90268 | 32149 ft | 444 kts | 169° |
| 2026-05-05 21:18 | 42.94710 | 10.91591 | 31556 ft | 445 kts | 168° |
| 2026-05-05 21:18 | 42.91755 | 10.92928 | 30523 ft | 450 kts | 168° |
| 2026-05-05 21:18 | 42.88814 | 10.94258 | 29439 ft | 453 kts | 168° |
| 2026-05-05 21:19 | 42.85808 | 10.95618 | 28934 ft | 443 kts | 168° |
| 2026-05-05 21:19 | 42.82997 | 10.97077 | 28795 ft | 433 kts | 160° |
| 2026-05-05 21:19 | 42.80435 | 10.99189 | 28580 ft | 429 kts | 149° |
| 2026-05-05 21:19 | 42.78241 | 11.01935 | 28317 ft | 430 kts | 137° |
| 2026-05-05 21:20 | 42.76454 | 11.05219 | 27804 ft | 434 kts | 128° |
| 2026-05-05 21:20 | 42.74829 | 11.08661 | 27278 ft | 431 kts | 128° |
| 2026-05-05 21:20 | 42.73229 | 11.12078 | 26832 ft | 426 kts | 127° |
| 2026-05-05 21:20 | 42.72174 | 11.14331 | 26476 ft | 424 kts | 127° |
| 2026-05-05 21:21 | 42.70607 | 11.17678 | 25726 ft | 416 kts | 127° |
| 2026-05-05 21:21 | 42.69055 | 11.20973 | 24967 ft | 409 kts | 127° |
| 2026-05-05 21:21 | 42.67535 | 11.24184 | 24343 ft | 401 kts | 127° |
| 2026-05-05 21:21 | 42.66029 | 11.27358 | 23791 ft | 397 kts | 127° |
| 2026-05-05 21:22 | 42.64536 | 11.30492 | 23151 ft | 392 kts | 127° |
| 2026-05-05 21:22 | 42.63059 | 11.33582 | 22603 ft | 391 kts | 127° |
| 2026-05-05 21:22 | 42.61575 | 11.36685 | 22029 ft | 391 kts | 127° |
| 2026-05-05 21:22 | 42.60120 | 11.39730 | 21618 ft | 387 kts | 127° |
| 2026-05-05 21:23 | 42.58634 | 11.42842 | 21070 ft | 387 kts | 127° |
| 2026-05-05 21:23 | 42.57200 | 11.45845 | 20695 ft | 382 kts | 127° |
| 2026-05-05 21:23 | 42.55653 | 11.48752 | 20247 ft | 376 kts | 136° |
| 2026-05-05 21:23 | 42.53769 | 11.51118 | 19813 ft | 367 kts | 148° |
| 2026-05-05 21:24 | 42.51632 | 11.52889 | 19156 ft | 355 kts | 159° |
| 2026-05-05 21:24 | 42.49424 | 11.54367 | 18376 ft | 355 kts | 149° |
| 2026-05-05 21:24 | 42.47626 | 11.56674 | 17551 ft | 358 kts | 136° |
| 2026-05-05 21:24 | 42.45979 | 11.59141 | 16727 ft | 355 kts | 136° |
| 2026-05-05 21:25 | 42.44319 | 11.61590 | 15954 ft | 351 kts | 137° |
| 2026-05-05 21:25 | 42.42658 | 11.63993 | 15195 ft | 347 kts | 137° |
| 2026-05-05 21:25 | 42.41001 | 11.66357 | 14446 ft | 344 kts | 138° |
| 2026-05-05 21:25 | 42.39362 | 11.68670 | 13887 ft | 336 kts | 137° |
| 2026-05-05 21:26 | 42.37795 | 11.70874 | 13591 ft | 319 kts | 137° |
| 2026-05-05 21:26 | 42.36308 | 11.72969 | 13451 ft | 298 kts | 138° |
| 2026-05-05 21:26 | 42.34914 | 11.74936 | 13253 ft | 282 kts | 138° |
| 2026-05-05 21:26 | 42.33681 | 11.76957 | 12885 ft | 278 kts | 123° |
| 2026-05-05 21:27 | 42.32986 | 11.79400 | 12630 ft | 281 kts | 103° |
| 2026-05-05 21:27 | 42.32939 | 11.82052 | 12366 ft | 284 kts | 81° |
| 2026-05-05 21:27 | 42.33472 | 11.84623 | 12126 ft | 286 kts | 73° |
| 2026-05-05 21:27 | 42.34080 | 11.87175 | 11865 ft | 284 kts | 73° |
| 2026-05-05 21:28 | 42.34646 | 11.89723 | 11510 ft | 285 kts | 82° |
| 2026-05-05 21:28 | 42.34520 | 11.92338 | 11121 ft | 277 kts | 115° |
| 2026-05-05 21:28 | 42.33459 | 11.94426 | 10729 ft | 268 kts | 146° |
| 2026-05-05 21:28 | 42.31830 | 11.95529 | 10357 ft | 261 kts | 166° |
| 2026-05-05 21:29 | 42.30096 | 11.96266 | 9913 ft | 264 kts | 166° |
| 2026-05-05 21:29 | 42.28293 | 11.97020 | 9154 ft | 276 kts | 166° |
| 2026-05-05 21:29 | 42.26451 | 11.97793 | 8464 ft | 275 kts | 166° |
| 2026-05-05 21:29 | 42.24680 | 11.98543 | 8058 ft | 264 kts | 165° |
| 2026-05-05 21:30 | 42.22948 | 11.99284 | 7712 ft | 252 kts | 165° |
| 2026-05-05 21:30 | 42.21343 | 11.99975 | 7385 ft | 239 kts | 165° |
| 2026-05-05 21:30 | 42.19789 | 12.00643 | 7076 ft | 232 kts | 165° |
| 2026-05-05 21:30 | 42.18255 | 12.01299 | 6772 ft | 230 kts | 165° |
| 2026-05-05 21:31 | 42.16738 | 12.01946 | 6477 ft | 229 kts | 165° |
| 2026-05-05 21:31 | 42.15223 | 12.02589 | 6127 ft | 227 kts | 165° |
| 2026-05-05 21:31 | 42.13729 | 12.03224 | 5812 ft | 224 kts | 165° |
| 2026-05-05 21:31 | 42.12283 | 12.03904 | 5514 ft | 217 kts | 156° |
| 2026-05-05 21:32 | 42.11093 | 12.05101 | 5222 ft | 212 kts | 136° |
| 2026-05-05 21:32 | 42.10118 | 12.06546 | 4947 ft | 204 kts | 136° |
| 2026-05-05 21:32 | 42.09175 | 12.07931 | 4675 ft | 199 kts | 136° |
| 2026-05-05 21:32 | 42.08235 | 12.09304 | 4409 ft | 198 kts | 136° |
| 2026-05-05 21:33 | 42.07303 | 12.10667 | 4150 ft | 197 kts | 137° |
| 2026-05-05 21:33 | 42.06374 | 12.12025 | 3886 ft | 196 kts | 137° |
| 2026-05-05 21:33 | 42.05455 | 12.13367 | 3624 ft | 194 kts | 137° |
| 2026-05-05 21:33 | 42.04555 | 12.14683 | 3376 ft | 193 kts | 137° |
| 2026-05-05 21:34 | 42.03648 | 12.16010 | 3116 ft | 192 kts | 137° |
| 2026-05-05 21:34 | 42.02750 | 12.17325 | 2854 ft | 190 kts | 136° |
| 2026-05-05 21:34 | 42.01843 | 12.18574 | 2651 ft | 182 kts | 145° |
| 2026-05-05 21:34 | 42.00816 | 12.19333 | 2530 ft | 157 kts | 163° |
| 2026-05-05 21:35 | 41.99820 | 12.19751 | 2516 ft | 146 kts | 164° |
| 2026-05-05 21:35 | 41.98860 | 12.20157 | 2514 ft | 143 kts | 165° |
| 2026-05-05 21:35 | 41.97916 | 12.20555 | 2511 ft | 142 kts | 164° |
| 2026-05-05 21:35 | 41.96968 | 12.20954 | 2482 ft | 142 kts | 164° |
| 2026-05-05 21:36 | 41.96023 | 12.21351 | 2347 ft | 142 kts | 165° |
| 2026-05-05 21:36 | 41.95082 | 12.21747 | 2169 ft | 141 kts | 165° |
| 2026-05-05 21:36 | 41.94150 | 12.22139 | 2006 ft | 140 kts | 165° |
| 2026-05-05 21:36 | 41.93221 | 12.22529 | 1825 ft | 140 kts | 164° |
| 2026-05-05 21:37 | 41.92290 | 12.22920 | 1638 ft | 140 kts | 164° |
| 2026-05-05 21:37 | 41.91375 | 12.23305 | 1450 ft | 140 kts | 163° |
| 2026-05-05 21:37 | 41.90445 | 12.23695 | 1260 ft | 140 kts | 162° |
| 2026-05-05 21:37 | 41.89516 | 12.24085 | 1069 ft | 140 kts | 161° |
| 2026-05-05 21:38 | 41.88592 | 12.24467 | 879 ft | 138 kts | 161° |
| 2026-05-05 21:38 | 41.87672 | 12.24864 | 629 ft | 139 kts | 161° |
| 2026-05-05 21:38 | 41.86755 | 12.25260 | 427 ft | 138 kts | 162° |
| 2026-05-05 21:38 | 41.85832 | 12.25636 | 251 ft | 141 kts | 162° |
| 2026-05-05 21:39 | 41.84891 | 12.26018 | 142 ft | 141 kts | 160° |
| 2026-05-05 21:39 | 41.83954 | 12.26420 | 16 ft | 139 kts | 161° |
| 2026-05-05 21:39 | 41.83196 | 12.26746 | 13 ft | 88 kts | 163° |
| 2026-05-05 21:39 | 41.82774 | 12.26915 | 19 ft | 43 kts | 162° |
| 2026-05-05 21:40 | 41.82497 | 12.27030 | 15 ft | 40 kts | 162° |
| 2026-05-05 21:40 | 41.82249 | 12.27131 | 10 ft | 31 kts | 169° |
| 2026-05-05 21:40 | 41.82071 | 12.27135 | 8 ft | 21 kts | 186° |
| 2026-05-05 21:40 | 41.81933 | 12.27107 | 10 ft | 20 kts | 190° |
| 2026-05-05 21:41 | 41.81800 | 12.27061 | 14 ft | 20 kts | 192° |
| 2026-05-05 21:41 | 41.81765 | 12.27052 | 15 ft | 0 kts | 189° |
| 2026-05-05 21:44 | 41.81754 | 12.27050 | 15 ft | 7 kts | 189° |
| 2026-05-05 21:44 | 41.81661 | 12.27056 | 17 ft | 17 kts | 166° |
| 2026-05-05 21:45 | 41.81543 | 12.27102 | 18 ft | 18 kts | 163° |
| 2026-05-05 21:45 | 41.81420 | 12.27153 | 20 ft | 20 kts | 163° |
| 2026-05-05 21:45 | 41.81278 | 12.27212 | 14 ft | 16 kts | 162° |
| 2026-05-05 21:45 | 41.81195 | 12.27248 | 14 ft | 14 kts | 162° |
| 2026-05-05 21:46 | 41.81090 | 12.27285 | 13 ft | 17 kts | 183° |
| 2026-05-05 21:46 | 41.81013 | 12.27196 | 11 ft | 3 kts | 181° |
| 2026-05-05 21:46 | 41.80984 | 12.27207 | 11 ft | 11 kts | 165° |
| 2026-05-05 21:46 | 41.80889 | 12.27241 | 12 ft | 17 kts | 165° |
| 2026-05-05 21:47 | 41.80766 | 12.27292 | 12 ft | 18 kts | 164° |
| 2026-05-05 21:47 | 41.80743 | 12.27294 | 13 ft | 0 kts | 180° |
| 2026-05-05 21:53 | 41.80711 | 12.27287 | 13 ft | 6 kts | 199° |
| 2026-05-05 21:53 | 41.80681 | 12.27260 | 14 ft | 6 kts | 223° |
| 2026-05-05 21:53 | 41.80648 | 12.27196 | 13 ft | 11 kts | 245° |
| 2026-05-05 21:53 | 41.80611 | 12.27069 | 13 ft | 18 kts | 250° |
| 2026-05-05 21:54 | 41.80566 | 12.26900 | 14 ft | 20 kts | 250° |
| 2026-05-05 21:54 | 41.80516 | 12.26716 | 15 ft | 22 kts | 249° |
| 2026-05-05 21:54 | 41.80463 | 12.26533 | 14 ft | 16 kts | 249° |
| 2026-05-05 21:54 | 41.80426 | 12.26405 | 14 ft | 14 kts | 249° |
| 2026-05-05 21:55 | 41.80393 | 12.26289 | 13 ft | 12 kts | 250° |
| 2026-05-05 21:55 | 41.80366 | 12.26188 | 15 ft | 11 kts | 250° |
| 2026-05-05 21:55 | 41.80329 | 12.26112 | 13 ft | 9 kts | 220° |
| 2026-05-05 21:55 | 41.80277 | 12.26072 | 13 ft | 9 kts | 206° |
| 2026-05-05 21:56 | 41.80209 | 12.26029 | 14 ft | 10 kts | 205° |
| 2026-05-05 21:56 | 41.80153 | 12.25994 | 17 ft | 8 kts | 205° |
| 2026-05-05 21:56 | 41.80092 | 12.25958 | 16 ft | 10 kts | 204° |
| 2026-05-05 21:56 | 41.80017 | 12.25913 | 18 ft | 13 kts | 204° |
| 2026-05-05 21:57 | 41.79932 | 12.25863 | 18 ft | 14 kts | 204° |
| 2026-05-05 21:57 | 41.79843 | 12.25801 | 18 ft | 14 kts | 214° |
| 2026-05-05 21:57 | 41.79815 | 12.25777 | 18 ft | 1 kts | 210° |
| 2026-05-05 21:57 | 41.79794 | 12.25763 | 18 ft | 4 kts | 206° |
| 2026-05-05 21:58 | 41.79772 | 12.25749 | 20 ft | 3 kts | 204° |
| 2026-05-05 21:58 | 41.79757 | 12.25728 | 18 ft | 3 kts | 264° |
| 2026-05-05 21:58 | 41.79759 | 12.25699 | 18 ft | 3 kts | 276° |
| 2026-05-05 21:58 | 41.79765 | 12.25673 | 18 ft | 3 kts | 291° |
| 2026-05-05 21:59 | 41.79765 | 12.25672 | 18 ft | 0 kts | 291° |
| 2026-05-05 22:01 | 41.79765 | 12.25673 | 20 ft | 0 kts | 291° |
| 2026-05-05 22:02 | 41.79766 | 12.25671 | 20 ft | 6 kts | 294° |
| 2026-05-05 22:02 | 41.79766 | 12.25670 | 19 ft | 0 kts | 294° |